sensor_id;sensor_type;location;lat;lon;timestamp;P1;durP1;ratioP1;P2;durP2;ratioP2
62933;SDS011;49038;47.600;19.242;2023-03-14T00:01:42;4.95;;;2.97;;
62933;SDS011;49038;47.600;19.242;2023-03-14T00:04:46;4.40;;;3.12;;
62933;SDS011;49038;47.600;19.242;2023-03-14T00:07:48;5.05;;;3.40;;
62933;SDS011;49038;47.600;19.242;2023-03-14T00:10:50;8.20;;;3.42;;
62933;SDS011;49038;47.600;19.242;2023-03-14T00:13:52;6.07;;;3.28;;
62933;SDS011;49038;47.600;19.242;2023-03-14T00:16:55;6.97;;;3.22;;
62933;SDS011;49038;47.600;19.242;2023-03-14T00:20:00;5.53;;;3.08;;
62933;SDS011;49038;47.600;19.242;2023-03-14T00:23:13;6.70;;;3.95;;
62933;SDS011;49038;47.600;19.242;2023-03-14T00:26:16;7.35;;;3.10;;
62933;SDS011;49038;47.600;19.242;2023-03-14T00:29:19;10.57;;;4.10;;
62933;SDS011;49038;47.600;19.242;2023-03-14T00:32:21;4.12;;;2.85;;
62933;SDS011;49038;47.600;19.242;2023-03-14T00:35:24;3.65;;;2.92;;
62933;SDS011;49038;47.600;19.242;2023-03-14T00:38:26;6.68;;;3.62;;
62933;SDS011;49038;47.600;19.242;2023-03-14T00:41:29;5.80;;;3.00;;
62933;SDS011;49038;47.600;19.242;2023-03-14T00:44:31;9.27;;;3.20;;
62933;SDS011;49038;47.600;19.242;2023-03-14T00:47:33;5.28;;;3.53;;
62933;SDS011;49038;47.600;19.242;2023-03-14T00:50:35;4.53;;;3.37;;
62933;SDS011;49038;47.600;19.242;2023-03-14T00:53:38;5.15;;;2.85;;
62933;SDS011;49038;47.600;19.242;2023-03-14T00:56:40;7.22;;;3.35;;
62933;SDS011;49038;47.600;19.242;2023-03-14T00:59:43;7.15;;;4.00;;
62933;SDS011;49038;47.600;19.242;2023-03-14T01:02:45;6.57;;;3.03;;
62933;SDS011;49038;47.600;19.242;2023-03-14T01:05:47;6.22;;;2.62;;
62933;SDS011;49038;47.600;19.242;2023-03-14T01:08:49;8.23;;;3.33;;
62933;SDS011;49038;47.600;19.242;2023-03-14T01:11:52;7.22;;;3.15;;
62933;SDS011;49038;47.600;19.242;2023-03-14T01:14:54;6.18;;;3.22;;
62933;SDS011;49038;47.600;19.242;2023-03-14T01:17:56;8.20;;;3.58;;
62933;SDS011;49038;47.600;19.242;2023-03-14T01:20:59;4.78;;;3.20;;
62933;SDS011;49038;47.600;19.242;2023-03-14T01:24:03;4.62;;;3.60;;
62933;SDS011;49038;47.600;19.242;2023-03-14T01:27:06;7.00;;;3.17;;
62933;SDS011;49038;47.600;19.242;2023-03-14T01:30:09;5.72;;;2.80;;
62933;SDS011;49038;47.600;19.242;2023-03-14T01:33:12;9.13;;;3.67;;
62933;SDS011;49038;47.600;19.242;2023-03-14T01:36:17;5.70;;;3.37;;
62933;SDS011;49038;47.600;19.242;2023-03-14T01:39:20;6.93;;;3.40;;
62933;SDS011;49038;47.600;19.242;2023-03-14T01:42:22;6.15;;;3.28;;
62933;SDS011;49038;47.600;19.242;2023-03-14T01:52:34;3.97;;;2.65;;
62933;SDS011;49038;47.600;19.242;2023-03-14T01:55:43;9.10;;;3.83;;
62933;SDS011;49038;47.600;19.242;2023-03-14T01:58:46;5.25;;;3.22;;
62933;SDS011;49038;47.600;19.242;2023-03-14T02:01:51;4.12;;;2.80;;
62933;SDS011;49038;47.600;19.242;2023-03-14T02:04:54;5.35;;;3.75;;
62933;SDS011;49038;47.600;19.242;2023-03-14T02:07:58;5.00;;;2.58;;
62933;SDS011;49038;47.600;19.242;2023-03-14T02:11:01;6.20;;;3.55;;
62933;SDS011;49038;47.600;19.242;2023-03-14T02:14:03;4.97;;;3.60;;
62933;SDS011;49038;47.600;19.242;2023-03-14T02:17:06;4.85;;;3.55;;
62933;SDS011;49038;47.600;19.242;2023-03-14T02:20:23;7.75;;;3.62;;
62933;SDS011;49038;47.600;19.242;2023-03-14T02:27:04;6.72;;;3.33;;
62933;SDS011;49038;47.600;19.242;2023-03-14T02:30:25;5.90;;;3.12;;
62933;SDS011;49038;47.600;19.242;2023-03-14T02:33:29;5.22;;;3.78;;
62933;SDS011;49038;47.600;19.242;2023-03-14T02:36:31;5.43;;;2.75;;
62933;SDS011;49038;47.600;19.242;2023-03-14T02:39:37;3.55;;;2.40;;
62933;SDS011;49038;47.600;19.242;2023-03-14T02:42:41;3.15;;;2.80;;
62933;SDS011;49038;47.600;19.242;2023-03-14T02:45:44;4.65;;;3.30;;
62933;SDS011;49038;47.600;19.242;2023-03-14T02:52:00;9.88;;;2.92;;
62933;SDS011;49038;47.600;19.242;2023-03-14T02:55:02;5.37;;;3.40;;
62933;SDS011;49038;47.600;19.242;2023-03-14T02:58:05;4.70;;;2.97;;
62933;SDS011;49038;47.600;19.242;2023-03-14T03:01:07;6.22;;;3.37;;
62933;SDS011;49038;47.600;19.242;2023-03-14T03:04:09;5.53;;;3.47;;
62933;SDS011;49038;47.600;19.242;2023-03-14T03:07:12;5.82;;;3.12;;
62933;SDS011;49038;47.600;19.242;2023-03-14T03:10:14;5.35;;;3.62;;
62933;SDS011;49038;47.600;19.242;2023-03-14T03:13:16;4.87;;;2.70;;
62933;SDS011;49038;47.600;19.242;2023-03-14T03:16:18;4.72;;;3.92;;
62933;SDS011;49038;47.600;19.242;2023-03-14T03:19:21;6.12;;;3.60;;
62933;SDS011;49038;47.600;19.242;2023-03-14T03:22:23;9.50;;;4.07;;
62933;SDS011;49038;47.600;19.242;2023-03-14T03:25:25;6.70;;;3.15;;
62933;SDS011;49038;47.600;19.242;2023-03-14T03:28:28;7.75;;;2.75;;
62933;SDS011;49038;47.600;19.242;2023-03-14T03:31:30;4.80;;;3.35;;
62933;SDS011;49038;47.600;19.242;2023-03-14T03:34:33;8.00;;;3.33;;
62933;SDS011;49038;47.600;19.242;2023-03-14T03:37:35;5.65;;;3.42;;
62933;SDS011;49038;47.600;19.242;2023-03-14T03:40:38;6.10;;;2.92;;
62933;SDS011;49038;47.600;19.242;2023-03-14T03:43:40;4.62;;;2.60;;
62933;SDS011;49038;47.600;19.242;2023-03-14T03:46:42;3.70;;;3.00;;
62933;SDS011;49038;47.600;19.242;2023-03-14T03:49:44;7.28;;;3.47;;
62933;SDS011;49038;47.600;19.242;2023-03-14T03:52:46;5.55;;;3.08;;
62933;SDS011;49038;47.600;19.242;2023-03-14T03:55:48;5.45;;;3.42;;
62933;SDS011;49038;47.600;19.242;2023-03-14T03:58:51;7.05;;;3.17;;
62933;SDS011;49038;47.600;19.242;2023-03-14T04:01:53;6.25;;;3.37;;
62933;SDS011;49038;47.600;19.242;2023-03-14T04:04:55;4.75;;;3.00;;
62933;SDS011;49038;47.600;19.242;2023-03-14T04:07:58;4.80;;;2.55;;
62933;SDS011;49038;47.600;19.242;2023-03-14T04:11:00;4.30;;;2.87;;
62933;SDS011;49038;47.600;19.242;2023-03-14T04:14:03;7.82;;;2.72;;
62933;SDS011;49038;47.600;19.242;2023-03-14T04:17:05;4.65;;;3.00;;
62933;SDS011;49038;47.600;19.242;2023-03-14T04:20:08;4.20;;;3.00;;
62933;SDS011;49038;47.600;19.242;2023-03-14T04:23:12;4.65;;;3.08;;
62933;SDS011;49038;47.600;19.242;2023-03-14T04:26:15;5.20;;;3.10;;
62933;SDS011;49038;47.600;19.242;2023-03-14T04:29:17;2.37;;;2.10;;
62933;SDS011;49038;47.600;19.242;2023-03-14T04:32:19;3.92;;;3.08;;
62933;SDS011;49038;47.600;19.242;2023-03-14T04:35:22;5.03;;;3.22;;
62933;SDS011;49038;47.600;19.242;2023-03-14T04:38:24;3.67;;;2.70;;
62933;SDS011;49038;47.600;19.242;2023-03-14T04:41:26;5.10;;;2.90;;
62933;SDS011;49038;47.600;19.242;2023-03-14T04:44:28;4.43;;;3.05;;
62933;SDS011;49038;47.600;19.242;2023-03-14T04:47:31;4.82;;;3.35;;
62933;SDS011;49038;47.600;19.242;2023-03-14T04:50:33;3.80;;;2.85;;
62933;SDS011;49038;47.600;19.242;2023-03-14T04:53:35;3.22;;;2.30;;
62933;SDS011;49038;47.600;19.242;2023-03-14T04:56:39;3.95;;;2.30;;
62933;SDS011;49038;47.600;19.242;2023-03-14T04:59:41;6.07;;;2.90;;
62933;SDS011;49038;47.600;19.242;2023-03-14T05:02:43;5.72;;;2.67;;
62933;SDS011;49038;47.600;19.242;2023-03-14T05:05:45;4.10;;;3.10;;
62933;SDS011;49038;47.600;19.242;2023-03-14T05:08:48;7.37;;;3.65;;
62933;SDS011;49038;47.600;19.242;2023-03-14T05:11:50;5.95;;;3.58;;
62933;SDS011;49038;47.600;19.242;2023-03-14T05:14:52;13.52;;;3.08;;
62933;SDS011;49038;47.600;19.242;2023-03-14T05:17:54;4.65;;;2.85;;
62933;SDS011;49038;47.600;19.242;2023-03-14T05:20:57;6.12;;;4.43;;
62933;SDS011;49038;47.600;19.242;2023-03-14T05:23:59;8.02;;;3.53;;
62933;SDS011;49038;47.600;19.242;2023-03-14T05:27:01;5.62;;;3.50;;
62933;SDS011;49038;47.600;19.242;2023-03-14T05:30:04;6.93;;;4.53;;
62933;SDS011;49038;47.600;19.242;2023-03-14T05:33:07;7.85;;;3.47;;
62933;SDS011;49038;47.600;19.242;2023-03-14T05:36:09;4.60;;;3.25;;
62933;SDS011;49038;47.600;19.242;2023-03-14T05:39:12;11.60;;;3.62;;
62933;SDS011;49038;47.600;19.242;2023-03-14T05:42:14;6.93;;;4.00;;
62933;SDS011;49038;47.600;19.242;2023-03-14T05:45:16;5.45;;;3.80;;
62933;SDS011;49038;47.600;19.242;2023-03-14T05:48:18;5.07;;;3.20;;
62933;SDS011;49038;47.600;19.242;2023-03-14T05:51:20;3.58;;;3.25;;
62933;SDS011;49038;47.600;19.242;2023-03-14T05:54:23;5.93;;;3.47;;
62933;SDS011;49038;47.600;19.242;2023-03-14T05:57:25;8.13;;;3.55;;
62933;SDS011;49038;47.600;19.242;2023-03-14T06:00:27;3.55;;;3.08;;
62933;SDS011;49038;47.600;19.242;2023-03-14T06:03:29;8.15;;;3.30;;
62933;SDS011;49038;47.600;19.242;2023-03-14T06:06:32;5.37;;;2.35;;
62933;SDS011;49038;47.600;19.242;2023-03-14T06:09:34;4.18;;;2.85;;
62933;SDS011;49038;47.600;19.242;2023-03-14T06:12:36;4.60;;;2.50;;
62933;SDS011;49038;47.600;19.242;2023-03-14T06:15:38;4.75;;;2.80;;
62933;SDS011;49038;47.600;19.242;2023-03-14T06:18:41;3.90;;;2.85;;
62933;SDS011;49038;47.600;19.242;2023-03-14T06:21:43;5.68;;;4.03;;
62933;SDS011;49038;47.600;19.242;2023-03-14T06:24:45;5.60;;;3.15;;
62933;SDS011;49038;47.600;19.242;2023-03-14T06:27:47;7.18;;;4.07;;
62933;SDS011;49038;47.600;19.242;2023-03-14T06:30:49;10.35;;;4.97;;
62933;SDS011;49038;47.600;19.242;2023-03-14T06:33:52;7.82;;;3.47;;
62933;SDS011;49038;47.600;19.242;2023-03-14T06:36:54;5.50;;;3.37;;
62933;SDS011;49038;47.600;19.242;2023-03-14T06:39:56;5.30;;;3.28;;
62933;SDS011;49038;47.600;19.242;2023-03-14T06:42:59;5.95;;;3.25;;
62933;SDS011;49038;47.600;19.242;2023-03-14T06:46:01;6.00;;;2.80;;
62933;SDS011;49038;47.600;19.242;2023-03-14T06:49:03;4.22;;;2.58;;
62933;SDS011;49038;47.600;19.242;2023-03-14T06:52:06;11.98;;;2.85;;
62933;SDS011;49038;47.600;19.242;2023-03-14T06:55:08;5.97;;;3.00;;
62933;SDS011;49038;47.600;19.242;2023-03-14T06:58:11;11.07;;;4.00;;
62933;SDS011;49038;47.600;19.242;2023-03-14T07:01:28;8.43;;;3.17;;
62933;SDS011;49038;47.600;19.242;2023-03-14T07:04:31;4.80;;;2.80;;
62933;SDS011;49038;47.600;19.242;2023-03-14T07:07:34;7.18;;;3.33;;
62933;SDS011;49038;47.600;19.242;2023-03-14T07:10:36;3.58;;;2.12;;
62933;SDS011;49038;47.600;19.242;2023-03-14T07:13:38;4.93;;;3.08;;
62933;SDS011;49038;47.600;19.242;2023-03-14T07:16:41;6.12;;;3.05;;
62933;SDS011;49038;47.600;19.242;2023-03-14T07:19:43;5.85;;;3.42;;
62933;SDS011;49038;47.600;19.242;2023-03-14T07:22:49;5.65;;;3.30;;
62933;SDS011;49038;47.600;19.242;2023-03-14T07:25:52;6.70;;;2.67;;
62933;SDS011;49038;47.600;19.242;2023-03-14T07:28:55;6.53;;;3.30;;
62933;SDS011;49038;47.600;19.242;2023-03-14T07:31:58;4.93;;;3.20;;
62933;SDS011;49038;47.600;19.242;2023-03-14T07:35:00;4.93;;;2.67;;
62933;SDS011;49038;47.600;19.242;2023-03-14T07:38:02;6.82;;;2.83;;
62933;SDS011;49038;47.600;19.242;2023-03-14T07:41:05;4.43;;;3.03;;
62933;SDS011;49038;47.600;19.242;2023-03-14T07:44:08;5.30;;;3.10;;
62933;SDS011;49038;47.600;19.242;2023-03-14T07:47:10;9.85;;;2.62;;
62933;SDS011;49038;47.600;19.242;2023-03-14T07:50:13;5.30;;;2.50;;
62933;SDS011;49038;47.600;19.242;2023-03-14T07:53:15;4.95;;;3.42;;
62933;SDS011;49038;47.600;19.242;2023-03-14T07:56:18;6.78;;;2.90;;
62933;SDS011;49038;47.600;19.242;2023-03-14T07:59:20;5.10;;;2.42;;
62933;SDS011;49038;47.600;19.242;2023-03-14T08:02:22;3.65;;;2.40;;
62933;SDS011;49038;47.600;19.242;2023-03-14T08:05:26;6.40;;;2.60;;
62933;SDS011;49038;47.600;19.242;2023-03-14T08:08:28;8.80;;;2.55;;
62933;SDS011;49038;47.600;19.242;2023-03-14T08:11:30;6.05;;;2.35;;
62933;SDS011;49038;47.600;19.242;2023-03-14T08:14:32;2.35;;;2.05;;
62933;SDS011;49038;47.600;19.242;2023-03-14T08:17:35;7.07;;;2.30;;
62933;SDS011;49038;47.600;19.242;2023-03-14T08:20:38;3.95;;;2.17;;
62933;SDS011;49038;47.600;19.242;2023-03-14T08:23:40;4.35;;;2.87;;
62933;SDS011;49038;47.600;19.242;2023-03-14T08:26:42;4.50;;;2.50;;
62933;SDS011;49038;47.600;19.242;2023-03-14T08:29:44;3.72;;;2.35;;
62933;SDS011;49038;47.600;19.242;2023-03-14T08:32:47;7.53;;;3.33;;
62933;SDS011;49038;47.600;19.242;2023-03-14T08:35:56;4.95;;;2.87;;
62933;SDS011;49038;47.600;19.242;2023-03-14T08:39:00;5.87;;;2.73;;
62933;SDS011;49038;47.600;19.242;2023-03-14T08:42:02;4.68;;;2.70;;
62933;SDS011;49038;47.600;19.242;2023-03-14T08:45:05;6.93;;;2.87;;
62933;SDS011;49038;47.600;19.242;2023-03-14T08:48:08;8.68;;;2.87;;
62933;SDS011;49038;47.600;19.242;2023-03-14T08:51:11;3.33;;;2.33;;
62933;SDS011;49038;47.600;19.242;2023-03-14T08:54:15;4.70;;;2.35;;
62933;SDS011;49038;47.600;19.242;2023-03-14T08:57:17;3.30;;;2.08;;
62933;SDS011;49038;47.600;19.242;2023-03-14T09:00:20;4.85;;;2.15;;
62933;SDS011;49038;47.600;19.242;2023-03-14T09:03:22;6.72;;;1.87;;
62933;SDS011;49038;47.600;19.242;2023-03-14T09:06:25;2.78;;;2.00;;
62933;SDS011;49038;47.600;19.242;2023-03-14T09:09:27;4.35;;;2.10;;
62933;SDS011;49038;47.600;19.242;2023-03-14T09:12:29;4.90;;;2.00;;
62933;SDS011;49038;47.600;19.242;2023-03-14T09:15:32;5.00;;;2.50;;
62933;SDS011;49038;47.600;19.242;2023-03-14T09:18:34;5.07;;;2.10;;
62933;SDS011;49038;47.600;19.242;2023-03-14T09:21:37;5.97;;;2.47;;
62933;SDS011;49038;47.600;19.242;2023-03-14T09:24:41;3.28;;;2.60;;
62933;SDS011;49038;47.600;19.242;2023-03-14T09:27:43;5.37;;;2.30;;
62933;SDS011;49038;47.600;19.242;2023-03-14T09:30:45;7.40;;;3.50;;
62933;SDS011;49038;47.600;19.242;2023-03-14T09:33:47;5.60;;;2.10;;
62933;SDS011;49038;47.600;19.242;2023-03-14T09:36:50;8.45;;;3.42;;
62933;SDS011;49038;47.600;19.242;2023-03-14T09:39:52;3.78;;;1.87;;
62933;SDS011;49038;47.600;19.242;2023-03-14T09:42:54;4.18;;;2.22;;
62933;SDS011;49038;47.600;19.242;2023-03-14T09:45:57;4.18;;;2.12;;
62933;SDS011;49038;47.600;19.242;2023-03-14T09:49:00;3.40;;;2.20;;
62933;SDS011;49038;47.600;19.242;2023-03-14T09:52:05;3.10;;;1.70;;
62933;SDS011;49038;47.600;19.242;2023-03-14T09:55:15;4.07;;;2.00;;
62933;SDS011;49038;47.600;19.242;2023-03-14T09:58:19;5.32;;;2.28;;
62933;SDS011;49038;47.600;19.242;2023-03-14T10:01:29;5.43;;;2.10;;
62933;SDS011;49038;47.600;19.242;2023-03-14T10:04:33;3.55;;;1.70;;
62933;SDS011;49038;47.600;19.242;2023-03-14T10:07:36;3.53;;;1.70;;
62933;SDS011;49038;47.600;19.242;2023-03-14T10:10:40;4.15;;;1.73;;
62933;SDS011;49038;47.600;19.242;2023-03-14T10:13:47;4.43;;;1.77;;
62933;SDS011;49038;47.600;19.242;2023-03-14T10:17:08;5.45;;;1.92;;
62933;SDS011;49038;47.600;19.242;2023-03-14T10:23:37;3.85;;;1.70;;
62933;SDS011;49038;47.600;19.242;2023-03-14T10:26:39;3.65;;;1.73;;
62933;SDS011;49038;47.600;19.242;2023-03-14T10:33:30;5.70;;;1.80;;
62933;SDS011;49038;47.600;19.242;2023-03-14T10:36:34;5.47;;;2.10;;
62933;SDS011;49038;47.600;19.242;2023-03-14T10:39:46;5.22;;;1.95;;
62933;SDS011;49038;47.600;19.242;2023-03-14T10:42:50;3.58;;;1.58;;
62933;SDS011;49038;47.600;19.242;2023-03-14T10:45:54;1.85;;;1.30;;
62933;SDS011;49038;47.600;19.242;2023-03-14T10:49:04;4.90;;;1.90;;
62933;SDS011;49038;47.600;19.242;2023-03-14T10:55:22;2.92;;;2.30;;
62933;SDS011;49038;47.600;19.242;2023-03-14T10:58:26;6.75;;;2.08;;
62933;SDS011;49038;47.600;19.242;2023-03-14T11:08:01;5.18;;;2.10;;
62933;SDS011;49038;47.600;19.242;2023-03-14T11:14:28;7.60;;;2.00;;
62933;SDS011;49038;47.600;19.242;2023-03-14T11:17:50;4.62;;;2.10;;
62933;SDS011;49038;47.600;19.242;2023-03-14T11:21:27;3.42;;;1.62;;
62933;SDS011;49038;47.600;19.242;2023-03-14T11:24:54;2.45;;;1.90;;
62933;SDS011;49038;47.600;19.242;2023-03-14T11:28:09;3.67;;;1.95;;
62933;SDS011;49038;47.600;19.242;2023-03-14T11:31:20;6.72;;;2.65;;
62933;SDS011;49038;47.600;19.242;2023-03-14T11:38:15;4.97;;;1.62;;
62933;SDS011;49038;47.600;19.242;2023-03-14T11:41:41;7.15;;;2.83;;
62933;SDS011;49038;47.600;19.242;2023-03-14T11:44:48;5.18;;;2.20;;
62933;SDS011;49038;47.600;19.242;2023-03-14T11:47:53;3.67;;;1.20;;
62933;SDS011;49038;47.600;19.242;2023-03-14T11:51:19;1.58;;;1.20;;
62933;SDS011;49038;47.600;19.242;2023-03-14T11:57:29;7.65;;;1.48;;
62933;SDS011;49038;47.600;19.242;2023-03-14T12:00:32;3.08;;;0.90;;
62933;SDS011;49038;47.600;19.242;2023-03-14T12:06:54;1.77;;;0.82;;
62933;SDS011;49038;47.600;19.242;2023-03-14T12:09:59;2.20;;;1.12;;
62933;SDS011;49038;47.600;19.242;2023-03-14T12:13:02;1.12;;;0.80;;
62933;SDS011;49038;47.600;19.242;2023-03-14T12:16:05;2.25;;;0.70;;
62933;SDS011;49038;47.600;19.242;2023-03-14T12:19:29;7.87;;;1.42;;
62933;SDS011;49038;47.600;19.242;2023-03-14T12:22:34;2.42;;;1.00;;
62933;SDS011;49038;47.600;19.242;2023-03-14T12:25:37;0.88;;;0.70;;
62933;SDS011;49038;47.600;19.242;2023-03-14T12:28:50;2.17;;;0.90;;
62933;SDS011;49038;47.600;19.242;2023-03-14T12:35:22;1.33;;;0.90;;
62933;SDS011;49038;47.600;19.242;2023-03-14T12:42:50;2.03;;;1.20;;
62933;SDS011;49038;47.600;19.242;2023-03-14T12:46:08;1.62;;;0.80;;
62933;SDS011;49038;47.600;19.242;2023-03-14T12:49:17;1.87;;;0.88;;
62933;SDS011;49038;47.600;19.242;2023-03-14T12:52:21;2.22;;;0.80;;
62933;SDS011;49038;47.600;19.242;2023-03-14T12:55:29;5.00;;;1.02;;
62933;SDS011;49038;47.600;19.242;2023-03-14T13:02:41;1.23;;;0.90;;
62933;SDS011;49038;47.600;19.242;2023-03-14T13:06:00;2.15;;;0.90;;
62933;SDS011;49038;47.600;19.242;2023-03-14T13:12:37;3.55;;;0.85;;
62933;SDS011;49038;47.600;19.242;2023-03-14T13:15:42;2.05;;;1.00;;
62933;SDS011;49038;47.600;19.242;2023-03-14T13:18:46;3.62;;;1.02;;
62933;SDS011;49038;47.600;19.242;2023-03-14T13:21:50;4.12;;;1.10;;
62933;SDS011;49038;47.600;19.242;2023-03-14T13:25:02;2.65;;;1.00;;
62933;SDS011;49038;47.600;19.242;2023-03-14T13:28:09;4.60;;;1.08;;
62933;SDS011;49038;47.600;19.242;2023-03-14T13:31:20;2.05;;;1.02;;
62933;SDS011;49038;47.600;19.242;2023-03-14T13:34:25;1.33;;;1.12;;
62933;SDS011;49038;47.600;19.242;2023-03-14T13:37:28;1.40;;;1.20;;
62933;SDS011;49038;47.600;19.242;2023-03-14T13:40:31;4.18;;;1.40;;
62933;SDS011;49038;47.600;19.242;2023-03-14T13:43:41;1.85;;;1.25;;
62933;SDS011;49038;47.600;19.242;2023-03-14T13:46:45;2.47;;;1.33;;
62933;SDS011;49038;47.600;19.242;2023-03-14T13:49:48;1.65;;;1.00;;
62933;SDS011;49038;47.600;19.242;2023-03-14T13:52:58;5.50;;;2.72;;
62933;SDS011;49038;47.600;19.242;2023-03-14T13:56:03;5.62;;;1.90;;
62933;SDS011;49038;47.600;19.242;2023-03-14T13:59:20;8.57;;;3.60;;
62933;SDS011;49038;47.600;19.242;2023-03-14T14:02:26;4.47;;;2.53;;
62933;SDS011;49038;47.600;19.242;2023-03-14T14:05:29;4.37;;;1.62;;
62933;SDS011;49038;47.600;19.242;2023-03-14T14:08:33;3.37;;;1.73;;
62933;SDS011;49038;47.600;19.242;2023-03-14T14:15:04;4.75;;;1.90;;
62933;SDS011;49038;47.600;19.242;2023-03-14T14:18:16;3.87;;;2.33;;
62933;SDS011;49038;47.600;19.242;2023-03-14T14:21:22;4.00;;;2.50;;
62933;SDS011;49038;47.600;19.242;2023-03-14T14:24:28;6.53;;;2.12;;
62933;SDS011;49038;47.600;19.242;2023-03-14T14:27:38;3.33;;;1.62;;
62933;SDS011;49038;47.600;19.242;2023-03-14T14:30:44;3.40;;;1.67;;
62933;SDS011;49038;47.600;19.242;2023-03-14T14:34:00;4.30;;;1.70;;
62933;SDS011;49038;47.600;19.242;2023-03-14T14:37:03;6.43;;;1.67;;
62933;SDS011;49038;47.600;19.242;2023-03-14T14:40:07;3.33;;;1.58;;
62933;SDS011;49038;47.600;19.242;2023-03-14T14:43:14;6.20;;;1.77;;
62933;SDS011;49038;47.600;19.242;2023-03-14T14:46:19;8.60;;;3.22;;
62933;SDS011;49038;47.600;19.242;2023-03-14T14:49:27;4.53;;;2.22;;
62933;SDS011;49038;47.600;19.242;2023-03-14T14:52:41;11.15;;;4.20;;
62933;SDS011;49038;47.600;19.242;2023-03-14T14:55:45;3.30;;;1.65;;
62933;SDS011;49038;47.600;19.242;2023-03-14T14:58:48;9.65;;;1.80;;
62933;SDS011;49038;47.600;19.242;2023-03-14T15:01:54;4.47;;;1.87;;
62933;SDS011;49038;47.600;19.242;2023-03-14T15:04:57;4.07;;;1.80;;
62933;SDS011;49038;47.600;19.242;2023-03-14T15:08:00;3.15;;;1.67;;
62933;SDS011;49038;47.600;19.242;2023-03-14T15:11:02;2.28;;;1.70;;
62933;SDS011;49038;47.600;19.242;2023-03-14T15:14:04;2.30;;;1.62;;
62933;SDS011;49038;47.600;19.242;2023-03-14T15:17:10;3.90;;;2.05;;
62933;SDS011;49038;47.600;19.242;2023-03-14T15:20:14;3.58;;;1.70;;
62933;SDS011;49038;47.600;19.242;2023-03-14T15:23:18;7.60;;;1.70;;
62933;SDS011;49038;47.600;19.242;2023-03-14T15:26:22;3.28;;;2.22;;
62933;SDS011;49038;47.600;19.242;2023-03-14T15:29:26;3.67;;;1.98;;
62933;SDS011;49038;47.600;19.242;2023-03-14T15:32:30;4.40;;;1.75;;
62933;SDS011;49038;47.600;19.242;2023-03-14T15:35:33;3.65;;;1.85;;
62933;SDS011;49038;47.600;19.242;2023-03-14T15:38:36;5.87;;;2.08;;
62933;SDS011;49038;47.600;19.242;2023-03-14T15:41:38;5.10;;;2.45;;
62933;SDS011;49038;47.600;19.242;2023-03-14T15:44:40;7.12;;;2.70;;
62933;SDS011;49038;47.600;19.242;2023-03-14T15:47:42;4.90;;;2.15;;
62933;SDS011;49038;47.600;19.242;2023-03-14T15:50:45;5.12;;;2.53;;
62933;SDS011;49038;47.600;19.242;2023-03-14T15:53:47;5.85;;;2.80;;
62933;SDS011;49038;47.600;19.242;2023-03-14T15:56:49;4.95;;;2.03;;
62933;SDS011;49038;47.600;19.242;2023-03-14T15:59:53;6.05;;;2.08;;
62933;SDS011;49038;47.600;19.242;2023-03-14T16:02:56;4.65;;;2.20;;
62933;SDS011;49038;47.600;19.242;2023-03-14T16:05:58;4.60;;;1.62;;
62933;SDS011;49038;47.600;19.242;2023-03-14T16:09:00;4.50;;;2.30;;
62933;SDS011;49038;47.600;19.242;2023-03-14T16:12:02;3.00;;;1.45;;
62933;SDS011;49038;47.600;19.242;2023-03-14T16:15:07;1.75;;;1.00;;
62933;SDS011;49038;47.600;19.242;2023-03-14T16:18:10;2.65;;;1.42;;
62933;SDS011;49038;47.600;19.242;2023-03-14T16:21:22;1.37;;;1.25;;
62933;SDS011;49038;47.600;19.242;2023-03-14T16:24:24;1.87;;;1.00;;
62933;SDS011;49038;47.600;19.242;2023-03-14T16:27:27;1.65;;;1.30;;
62933;SDS011;49038;47.600;19.242;2023-03-14T16:30:29;3.45;;;1.02;;
62933;SDS011;49038;47.600;19.242;2023-03-14T16:33:32;1.65;;;0.93;;
62933;SDS011;49038;47.600;19.242;2023-03-14T16:36:35;2.80;;;1.12;;
62933;SDS011;49038;47.600;19.242;2023-03-14T16:39:37;2.20;;;1.37;;
62933;SDS011;49038;47.600;19.242;2023-03-14T16:42:59;9.05;;;5.68;;
62933;SDS011;49038;47.600;19.242;2023-03-14T16:46:17;7.75;;;4.78;;
62933;SDS011;49038;47.600;19.242;2023-03-14T16:49:20;4.05;;;2.30;;
62933;SDS011;49038;47.600;19.242;2023-03-14T16:52:22;6.22;;;2.03;;
62933;SDS011;49038;47.600;19.242;2023-03-14T16:55:24;4.57;;;1.95;;
62933;SDS011;49038;47.600;19.242;2023-03-14T16:58:26;2.30;;;1.65;;
62933;SDS011;49038;47.600;19.242;2023-03-14T17:01:32;3.45;;;1.87;;
62933;SDS011;49038;47.600;19.242;2023-03-14T17:04:34;6.22;;;2.08;;
62933;SDS011;49038;47.600;19.242;2023-03-14T17:07:36;4.87;;;3.00;;
62933;SDS011;49038;47.600;19.242;2023-03-14T17:10:39;7.07;;;2.00;;
62933;SDS011;49038;47.600;19.242;2023-03-14T17:13:41;2.85;;;2.00;;
62933;SDS011;49038;47.600;19.242;2023-03-14T17:16:43;5.90;;;3.47;;
62933;SDS011;49038;47.600;19.242;2023-03-14T17:19:46;3.80;;;2.35;;
62933;SDS011;49038;47.600;19.242;2023-03-14T17:22:48;2.83;;;1.98;;
62933;SDS011;49038;47.600;19.242;2023-03-14T17:25:51;2.55;;;1.80;;
62933;SDS011;49038;47.600;19.242;2023-03-14T17:28:53;7.10;;;2.92;;
62933;SDS011;49038;47.600;19.242;2023-03-14T17:31:56;3.85;;;2.03;;
62933;SDS011;49038;47.600;19.242;2023-03-14T17:34:58;4.80;;;2.37;;
62933;SDS011;49038;47.600;19.242;2023-03-14T17:38:00;7.40;;;2.97;;
62933;SDS011;49038;47.600;19.242;2023-03-14T17:41:05;6.40;;;2.22;;
62933;SDS011;49038;47.600;19.242;2023-03-14T17:44:09;3.45;;;1.60;;
62933;SDS011;49038;47.600;19.242;2023-03-14T17:47:12;2.28;;;1.80;;
62933;SDS011;49038;47.600;19.242;2023-03-14T17:50:14;3.12;;;1.70;;
62933;SDS011;49038;47.600;19.242;2023-03-14T17:53:17;2.30;;;1.52;;
62933;SDS011;49038;47.600;19.242;2023-03-14T17:56:19;2.45;;;1.67;;
62933;SDS011;49038;47.600;19.242;2023-03-14T17:59:22;6.72;;;2.65;;
62933;SDS011;49038;47.600;19.242;2023-03-14T18:02:24;3.15;;;1.73;;
62933;SDS011;49038;47.600;19.242;2023-03-14T18:05:27;2.58;;;1.70;;
62933;SDS011;49038;47.600;19.242;2023-03-14T18:08:29;2.70;;;2.03;;
62933;SDS011;49038;47.600;19.242;2023-03-14T18:11:33;4.90;;;2.55;;
62933;SDS011;49038;47.600;19.242;2023-03-14T18:14:36;5.80;;;3.20;;
62933;SDS011;49038;47.600;19.242;2023-03-14T18:17:39;7.40;;;2.60;;
62933;SDS011;49038;47.600;19.242;2023-03-14T18:20:47;8.40;;;3.55;;
62933;SDS011;49038;47.600;19.242;2023-03-14T18:23:54;11.40;;;3.58;;
62933;SDS011;49038;47.600;19.242;2023-03-14T18:26:57;4.97;;;3.25;;
62933;SDS011;49038;47.600;19.242;2023-03-14T18:30:00;6.62;;;3.00;;
62933;SDS011;49038;47.600;19.242;2023-03-14T18:33:03;4.22;;;2.87;;
62933;SDS011;49038;47.600;19.242;2023-03-14T18:36:06;15.75;;;5.05;;
62933;SDS011;49038;47.600;19.242;2023-03-14T18:39:10;11.93;;;4.80;;
62933;SDS011;49038;47.600;19.242;2023-03-14T18:42:12;16.42;;;5.45;;
62933;SDS011;49038;47.600;19.242;2023-03-14T18:45:16;4.82;;;2.65;;
62933;SDS011;49038;47.600;19.242;2023-03-14T18:48:18;3.60;;;2.25;;
62933;SDS011;49038;47.600;19.242;2023-03-14T18:51:22;4.00;;;2.45;;
62933;SDS011;49038;47.600;19.242;2023-03-14T18:54:27;3.17;;;2.30;;
62933;SDS011;49038;47.600;19.242;2023-03-14T18:57:29;4.78;;;3.47;;
62933;SDS011;49038;47.600;19.242;2023-03-14T19:00:32;6.85;;;3.37;;
62933;SDS011;49038;47.600;19.242;2023-03-14T19:03:34;4.25;;;3.15;;
62933;SDS011;49038;47.600;19.242;2023-03-14T19:06:38;9.85;;;4.80;;
62933;SDS011;49038;47.600;19.242;2023-03-14T19:09:42;17.87;;;8.07;;
62933;SDS011;49038;47.600;19.242;2023-03-14T19:12:45;7.12;;;4.65;;
62933;SDS011;49038;47.600;19.242;2023-03-14T19:15:49;3.20;;;2.28;;